Time;durP1;ratioP1;P1;durP2;ratioP2;P2;SDS_P1;SDS_P2;PMS_P1;PMS_P2;Temp;Humidity;BMP_temperature;BMP_pressure;BME280_temperature;BME280_humidity;BME280_pressure;Samples;Min_cycle;Max_cycle;Signal;HPM_P1;HPM_P2
2021/04/17 00:00:00;;;;;;;6.68;5.28;;;;;;;;;;5095559;28;20462;-47
2021/04/17 00:02:28;;;;;;;7.82;5.60;;;;;;;;;;5095553;28;20047;-47
2021/04/17 00:04:54;;;;;;;8.55;5.57;;;;;;;;;;5095585;28;20036;-46
2021/04/17 00:07:22;;;;;;;8.60;6.63;;;;;;;;;;5094783;28;20040;-47
2021/04/17 00:09:49;;;;;;;9.20;6.30;;;;;;;;;;5095444;28;20442;-47
2021/04/17 00:12:20;;;;;;;10.18;6.00;;;;;;;;;;5095366;28;20458;-47
2021/04/17 00:14:48;;;;;;;10.18;6.32;;;;;;;;;;5076306;28;20351;-48
2021/04/17 00:17:16;;;;;;;9.13;6.60;;;;;;;;;;5077771;28;20052;-47
2021/04/17 00:19:44;;;;;;;8.05;6.28;;;;;;;;;;5095385;28;20044;-46
2021/04/17 00:22:10;;;;;;;10.13;5.95;;;;;;;;;;5095253;28;20438;-46
2021/04/17 00:24:37;;;;;;;7.93;5.72;;;;;;;;;;5095348;28;20362;-47
2021/04/17 00:27:06;;;;;;;9.15;5.80;;;;;;;;;;5094806;28;20032;-48
2021/04/17 00:29:33;;;;;;;7.80;5.40;;;;;;;;;;5095367;28;20047;-47
2021/04/17 00:32:00;;;;;;;11.13;6.13;;;;;;;;;;5095229;28;20051;-48
2021/04/17 00:34:27;;;;;;;8.85;5.57;;;;;;;;;;5095325;28;20040;-49
2021/04/17 00:36:54;;;;;;;8.88;5.90;;;;;;;;;;5094777;28;20036;-47
2021/04/17 00:39:21;;;;;;;8.80;5.90;;;;;;;;;;5094835;28;20040;-47
2021/04/17 00:41:48;;;;;;;10.05;6.38;;;;;;;;;;5095054;28;20044;-47
2021/04/17 00:44:14;;;;;;;12.57;7.07;;;;;;;;;;5095008;28;20430;-46
2021/04/17 00:46:41;;;;;;;6.35;4.75;;;;;;;;;;5094950;28;20153;-47
2021/04/17 00:49:09;;;;;;;4.80;4.00;;;;;;;;;;5094836;28;20051;-47
2021/04/17 00:51:36;;;;;;;4.60;4.00;;;;;;;;;;5095085;28;20469;-48
2021/04/17 00:54:07;;;;;;;4.00;3.60;;;;;;;;;;5085676;28;20040;-45
2021/04/17 00:56:33;;;;;;;5.10;3.95;;;;;;;;;;5094639;28;20040;-46
2021/04/17 00:59:00;;;;;;;6.22;3.90;;;;;;;;;;5094473;28;20039;-47
2021/04/17 01:01:27;;;;;;;4.05;3.60;;;;;;;;;;5094402;28;20032;-49
2021/04/17 01:04:06;;;;;;;4.20;3.65;;;;;;;;;;5095372;28;20047;-47
2021/04/17 01:06:36;;;;;;;4.28;3.78;;;;;;;;;;5098273;28;20382;-47
2021/04/17 01:09:22;;;;;;;5.10;4.10;;;;;;;;;;5098633;28;20047;-47
2021/04/17 01:11:55;;;;;;;5.13;3.55;;;;;;;;;;5098430;28;20047;-47
2021/04/17 01:14:23;;;;;;;5.03;3.42;;;;;;;;;;5098592;28;20439;-45
2021/04/17 01:16:50;;;;;;;4.97;3.63;;;;;;;;;;5098289;28;20477;-50
2021/04/17 01:19:23;;;;;;;5.70;3.85;;;;;;;;;;5098466;28;20060;-46
2021/04/17 01:21:49;;;;;;;;;;;;;;;;;;5090412;28;20043;-46
2021/04/17 01:24:17;;;;;;;4.20;3.80;;;;;;;;;;5096313;28;19912;-45
2021/04/17 01:26:44;;;;;;;5.60;3.65;;;;;;;;;;5077937;28;20036;-46
2021/04/17 01:29:11;;;;;;;4.15;3.22;;;;;;;;;;5078132;28;20041;-46
2021/04/17 01:31:40;;;;;;;3.85;3.40;;;;;;;;;;5087761;28;20048;-46
2021/04/17 01:34:07;;;;;;;4.53;3.58;;;;;;;;;;5098281;28;20047;-47
2021/04/17 01:36:36;;;;;;;3.78;3.20;;;;;;;;;;5097863;28;20066;-46
2021/04/17 01:39:03;;;;;;;3.17;2.88;;;;;;;;;;5080299;28;20374;-48
2021/04/17 01:41:30;;;;;;;4.28;2.80;;;;;;;;;;5086109;28;20051;-47
2021/04/17 01:44:00;;;;;;;4.00;2.85;;;;;;;;;;5098092;28;20044;-46
2021/04/17 01:46:28;;;;;;;3.30;3.00;;;;;;;;;;5097834;28;20466;-47
2021/04/17 01:48:58;;;;;;;3.65;2.80;;;;;;;;;;5097806;28;20047;-50
2021/04/17 01:51:25;;;;;;;3.53;2.80;;;;;;;;;;5097738;28;20048;-46
2021/04/17 01:53:52;;;;;;;3.38;2.63;;;;;;;;;;5080161;28;20094;-46
2021/04/17 01:56:20;;;;;;;2.88;2.55;;;;;;;;;;5096553;28;20044;-48
2021/04/17 01:58:48;;;;;;;3.20;2.90;;;;;;;;;;5077626;28;20044;-46
2021/04/17 02:01:17;;;;;;;3.05;2.55;;;;;;;;;;5083046;28;20044;-53
2021/04/17 02:03:44;;;;;;;3.03;2.72;;;;;;;;;;5097829;28;20055;-48
2021/04/17 02:06:11;;;;;;;3.75;2.80;;;;;;;;;;5093048;28;20355;-47
2021/04/17 02:08:38;;;;;;;3.22;2.70;;;;;;;;;;5068618;28;20386;-47
2021/04/17 02:11:06;;;;;;;3.20;2.50;;;;;;;;;;5077357;28;20044;-45
2021/04/17 02:13:37;;;;;;;3.00;2.38;;;;;;;;;;5077333;28;20051;-47
2021/04/17 02:16:11;;;;;;;2.35;2.10;;;;;;;;;;5076946;28;20043;-47
2021/04/17 02:18:44;;;;;;;4.50;2.50;;;;;;;;;;5095684;28;20048;-46
2021/04/17 02:21:11;;;;;;;3.55;2.47;;;;;;;;;;5084435;28;20367;-50
2021/04/17 02:23:37;;;;;;;3.60;2.70;;;;;;;;;;5077188;28;20044;-46
2021/04/17 02:26:05;;;;;;;2.80;2.20;;;;;;;;;;5076928;28;20044;-46
2021/04/17 02:28:31;;;;;;;2.55;2.20;;;;;;;;;;5078489;28;20044;-47
2021/04/17 02:31:01;;;;;;;2.30;1.90;;;;;;;;;;5076983;28;20351;-47
2021/04/17 02:33:28;;;;;;;2.63;2.17;;;;;;;;;;5076900;28;20048;-46
2021/04/17 02:35:55;;;;;;;3.05;2.17;;;;;;;;;;5077137;28;20045;-46
2021/04/17 02:38:22;;;;;;;3.63;2.00;;;;;;;;;;5077364;28;20044;-47
2021/04/17 02:40:49;;;;;;;3.42;2.10;;;;;;;;;;5097015;28;20047;-47
2021/04/17 02:43:15;;;;;;;2.58;2.10;;;;;;;;;;5096602;28;20048;-46
2021/04/17 02:45:42;;;;;;;2.58;2.03;;;;;;;;;;5096838;28;20470;-47
2021/04/17 02:48:09;;;;;;;2.97;2.15;;;;;;;;;;5096396;28;20059;-48
2021/04/17 02:50:36;;;;;;;2.47;2.00;;;;;;;;;;5096823;28;20040;-46
2021/04/17 02:53:02;;;;;;;2.45;1.88;;;;;;;;;;5096825;28;20375;-47
2021/04/17 02:55:29;;;;;;;2.42;2.05;;;;;;;;;;5095483;28;20040;-46
2021/04/17 02:57:56;;;;;;;3.75;2.20;;;;;;;;;;5096566;28;20439;-46
2021/04/17 03:00:23;;;;;;;2.75;2.20;;;;;;;;;;5095530;28;20043;-46
2021/04/17 03:02:52;;;;;;;2.90;2.50;;;;;;;;;;5079029;28;20059;-47
2021/04/17 03:05:19;;;;;;;3.80;2.60;;;;;;;;;;5076076;28;20036;-47
2021/04/17 03:07:46;;;;;;;3.30;2.70;;;;;;;;;;5089594;28;20035;-47
2021/04/17 03:10:14;;;;;;;3.15;2.85;;;;;;;;;;5096174;28;20469;-47
2021/04/17 03:12:41;;;;;;;3.65;2.72;;;;;;;;;;5096043;28;20358;-47
2021/04/17 03:15:08;;;;;;;3.85;2.67;;;;;;;;;;5096136;28;20474;-47
2021/04/17 03:17:35;;;;;;;4.03;3.10;;;;;;;;;;5096218;28;20470;-48
2021/04/17 03:20:03;;;;;;;6.05;3.08;;;;;;;;;;5076693;28;20056;-48
2021/04/17 03:22:30;;;;;;;4.13;3.13;;;;;;;;;;5075354;28;20443;-50
2021/04/17 03:24:57;;;;;;;3.00;2.65;;;;;;;;;;5096136;28;20390;-47
2021/04/17 03:27:23;;;;;;;3.78;3.20;;;;;;;;;;5095466;28;20040;-47
2021/04/17 03:29:50;;;;;;;3.47;2.95;;;;;;;;;;5096010;28;20050;-48
2021/04/17 03:32:17;;;;;;;4.05;2.92;;;;;;;;;;5095568;28;20050;-46
2021/04/17 03:34:44;;;;;;;3.15;2.47;;;;;;;;;;5077625;28;20363;-52
2021/04/17 03:37:10;;;;;;;4.00;2.88;;;;;;;;;;5084046;28;20126;-46
2021/04/17 03:39:37;;;;;;;2.80;2.53;;;;;;;;;;5095974;28;20035;-52
2021/04/17 03:42:05;;;;;;;4.13;3.70;;;;;;;;;;5095565;28;20040;-47
2021/04/17 03:44:32;;;;;;;5.25;3.92;;;;;;;;;;5087578;28;20462;-47
2021/04/17 03:46:59;;;;;;;3.47;3.08;;;;;;;;;;5057812;28;20048;-50
2021/04/17 03:49:27;;;;;;;3.08;2.45;;;;;;;;;;5075493;28;20044;-47
2021/04/17 03:51:54;;;;;;;3.33;2.50;;;;;;;;;;5086753;28;20040;-48
2021/04/17 03:54:21;;;;;;;3.42;2.70;;;;;;;;;;5095605;28;20347;-55
2021/04/17 03:56:47;;;;;;;3.00;2.70;;;;;;;;;;5095471;28;20050;-48
2021/04/17 03:59:14;;;;;;;4.00;3.28;;;;;;;;;;5095622;28;20044;-50
2021/04/17 04:01:41;;;;;;;3.53;3.20;;;;;;;;;;5095372;28;20055;-46
2021/04/17 04:04:08;;;;;;;4.20;2.88;;;;;;;;;;5095496;28;20350;-48
2021/04/17 04:06:34;;;;;;;3.65;2.80;;;;;;;;;;5095057;28;20071;-47
2021/04/17 04:09:01;;;;;;;4.10;2.90;;;;;;;;;;5095468;28;20043;-46
2021/04/17 04:11:28;;;;;;;4.25;3.58;;;;;;;;;;5095234;28;20040;-47
2021/04/17 04:13:55;;;;;;;5.93;3.88;;;;;;;;;;5095496;28;20040;-47
2021/04/17 04:16:22;;;;;;;4.47;3.22;;;;;;;;;;5095265;28;20481;-50
2021/04/17 04:18:49;;;;;;;5.47;3.55;;;;;;;;;;5095470;28;20070;-48
2021/04/17 04:21:15;;;;;;;4.32;3.50;;;;;;;;;;5080576;28;20048;-49
2021/04/17 04:23:45;;;;;;;4.10;3.17;;;;;;;;;;5095417;28;20347;-49
2021/04/17 04:26:11;;;;;;;4.22;3.83;;;;;;;;;;5095166;28;20066;-47
2021/04/17 04:28:38;;;;;;;4.13;3.70;;;;;;;;;;5095185;28;20051;-46
2021/04/17 04:31:05;;;;;;;4.43;3.70;;;;;;;;;;5095089;28;20051;-50
2021/04/17 04:33:32;;;;;;;5.50;3.50;;;;;;;;;;5088656;28;20033;-48
2021/04/17 04:35:59;;;;;;;4.68;3.83;;;;;;;;;;5074793;28;20359;-47
2021/04/17 04:38:25;;;;;;;4.70;3.58;;;;;;;;;;5089848;28;20041;-44
2021/04/17 04:40:53;;;;;;;4.55;3.60;;;;;;;;;;5079533;28;20044;-48
2021/04/17 04:43:20;;;;;;;4.95;3.75;;;;;;;;;;5099231;28;20043;-47
2021/04/17 04:45:46;;;;;;;3.65;3.33;;;;;;;;;;5099035;28;20482;-56
2021/04/17 04:48:13;;;;;;;3.55;3.22;;;;;;;;;;5082030;28;20047;-55
2021/04/17 04:50:40;;;;;;;4.72;3.40;;;;;;;;;;5078927;28;20036;-46
2021/04/17 04:53:07;;;;;;;4.07;3.53;;;;;;;;;;5084379;28;20044;-46
2021/04/17 04:55:34;;;;;;;3.90;3.00;;;;;;;;;;5061001;28;20044;-46
2021/04/17 04:58:01;;;;;;;4.28;3.50;;;;;;;;;;5078582;28;20036;-46
2021/04/17 05:00:27;;;;;;;4.20;3.28;;;;;;;;;;5078673;28;20119;-49
2021/04/17 05:02:54;;;;;;;4.97;4.22;;;;;;;;;;5080705;28;20048;-48
2021/04/17 05:05:21;;;;;;;7.10;4.45;;;;;;;;;;5078374;28;20041;-46
2021/04/17 05:07:48;;;;;;;11.32;6.32;;;;;;;;;;5084505;28;20036;-51
2021/04/17 05:10:14;;;;;;;6.45;4.28;;;;;;;;;;5078479;28;20048;-46
2021/04/17 05:12:41;;;;;;;13.30;5.90;;;;;;;;;;5092929;28;20055;-46
2021/04/17 05:15:08;;;;;;;8.65;5.50;;;;;;;;;;5097232;28;20036;-46
2021/04/17 05:17:35;;;;;;;6.90;5.57;;;;;;;;;;5096138;28;20062;-46
2021/04/17 05:20:02;;;;;;;6.35;5.50;;;;;;;;;;5093503;28;20052;-47
2021/04/17 05:22:29;;;;;;;10.88;6.70;;;;;;;;;;5094895;28;20043;-46
2021/04/17 05:24:55;;;;;;;7.07;5.47;;;;;;;;;;5094219;28;20058;-47
2021/04/17 05:27:22;;;;;;;7.15;5.95;;;;;;;;;;5093982;28;20458;-47
2021/04/17 05:29:49;;;;;;;9.70;6.95;;;;;;;;;;5076549;28;20051;-48
2021/04/17 05:32:16;;;;;;;10.98;7.93;;;;;;;;;;5088726;28;20051;-48
2021/04/17 05:34:42;;;;;;;12.45;8.50;;;;;;;;;;5077496;28;20115;-49
2021/04/17 05:37:09;;;;;;;8.55;7.07;;;;;;;;;;5086095;28;20040;-47
2021/04/17 05:39:36;;;;;;;9.05;6.68;;;;;;;;;;5097173;28;20488;-47
2021/04/17 05:42:03;;;;;;;8.50;6.53;;;;;;;;;;5090564;28;20040;-46
2021/04/17 05:44:30;;;;;;;7.15;6.28;;;;;;;;;;5079809;28;20040;-48
2021/04/17 05:46:56;;;;;;;8.77;6.45;;;;;;;;;;5077169;28;20040;-45
2021/04/17 05:49:23;;;;;;;7.72;6.70;;;;;;;;;;5097738;28;20051;-47
2021/04/17 05:51:50;;;;;;;9.10;7.00;;;;;;;;;;5094033;28;20040;-47
2021/04/17 05:54:17;;;;;;;8.48;6.50;;;;;;;;;;5077666;28;20340;-46
2021/04/17 05:56:44;;;;;;;8.55;7.10;;;;;;;;;;5077490;28;20044;-46
2021/04/17 05:59:11;;;;;;;8.65;7.18;;;;;;;;;;5076346;28;20051;-46
2021/04/17 06:01:38;;;;;;;7.68;6.82;;;;;;;;;;5082487;28;20036;-46
2021/04/17 06:04:05;;;;;;;7.80;6.90;;;;;;;;;;5081758;28;20378;-46
2021/04/17 06:06:32;;;;;;;9.77;7.10;;;;;;;;;;5080551;28;20047;-49
2021/04/17 06:08:59;;;;;;;10.27;7.63;;;;;;;;;;5078307;28;20055;-47
2021/04/17 06:11:25;;;;;;;9.73;6.30;;;;;;;;;;5080293;28;20040;-47
2021/04/17 06:13:52;;;;;;;10.23;7.10;;;;;;;;;;5089747;28;20033;-47
2021/04/17 06:16:19;;;;;;;7.93;6.32;;;;;;;;;;5077406;28;20431;-46
2021/04/17 06:18:46;;;;;;;9.55;7.13;;;;;;;;;;5077347;28;20045;-47
2021/04/17 06:21:12;;;;;;;9.75;7.13;;;;;;;;;;5078419;28;20048;-46
2021/04/17 06:23:39;;;;;;;10.70;7.50;;;;;;;;;;5097373;28;20423;-47
2021/04/17 06:26:06;;;;;;;8.82;6.70;;;;;;;;;;5097204;28;20032;-47
2021/04/17 06:28:33;;;;;;;7.32;6.47;;;;;;;;;;5096438;28;20039;-46
2021/04/17 06:31:00;;;;;;;9.20;8.10;;;;;;;;;;5077085;28;20040;-47
2021/04/17 06:33:27;;;;;;;8.18;7.22;;;;;;;;;;5080974;28;20045;-47
2021/04/17 06:35:53;;;;;;;11.52;8.38;;;;;;;;;;5076683;28;20036;-47
2021/04/17 06:38:20;;;;;;;10.70;8.23;;;;;;;;;;5087789;28;20033;-48
2021/04/17 06:40:50;;;;;;;8.77;7.53;;;;;;;;;;5076781;28;20040;-47
2021/04/17 06:43:17;;;;;;;9.27;7.45;;;;;;;;;;5089472;28;20055;-47
2021/04/17 06:45:45;;;;;;;10.65;7.45;;;;;;;;;;5076524;28;20052;-46
2021/04/17 06:48:13;;;;;;;9.35;8.27;;;;;;;;;;5076456;28;20045;-46
2021/04/17 06:50:40;;;;;;;10.05;8.65;;;;;;;;;;5076570;28;20040;-47
2021/04/17 06:53:10;;;;;;;8.82;7.53;;;;;;;;;;5080030;28;20036;-48
2021/04/17 06:55:37;;;;;;;9.80;8.38;;;;;;;;;;5076532;28;20091;-48
2021/04/17 06:58:04;;;;;;;10.73;8.65;;;;;;;;;;5058757;28;20041;-48
2021/04/17 07:00:31;;;;;;;9.75;7.70;;;;;;;;;;5076437;28;20126;-46
2021/04/17 07:02:58;;;;;;;10.40;8.27;;;;;;;;;;5079297;28;20048;-46
2021/04/17 07:05:25;;;;;;;9.45;8.45;;;;;;;;;;5076214;28;20040;-47
2021/04/17 07:07:51;;;;;;;10.70;8.65;;;;;;;;;;5072809;28;20044;-46
2021/04/17 07:10:18;;;;;;;9.32;8.30;;;;;;;;;;5096441;28;20054;-46
2021/04/17 07:12:45;;;;;;;9.88;8.50;;;;;;;;;;5093718;28;20036;-46
2021/04/17 07:15:13;;;;;;;10.35;8.02;;;;;;;;;;5096335;28;20039;-45
2021/04/17 07:17:40;;;;;;;9.60;8.18;;;;;;;;;;5078932;28;20064;-47
2021/04/17 07:20:08;;;;;;;9.70;8.52;;;;;;;;;;5075975;28;20489;-46
2021/04/17 07:22:35;;;;;;;9.93;8.02;;;;;;;;;;5085676;28;20040;-47
2021/04/17 07:25:05;;;;;;;13.25;10.40;;;;;;;;;;5075955;28;20059;-46
2021/04/17 07:27:33;;;;;;;11.93;9.80;;;;;;;;;;5076193;28;20443;-46
2021/04/17 07:30:01;;;;;;;11.25;8.95;;;;;;;;;;5075707;28;20063;-47
2021/04/17 07:32:28;;;;;;;13.00;9.48;;;;;;;;;;5084931;28;20043;-47
2021/04/17 07:35:09;;;;;;;12.50;9.18;;;;;;;;;;5095959;28;20039;-47
2021/04/17 07:37:37;;;;;;;12.25;8.77;;;;;;;;;;5095591;28;20454;-47
2021/04/17 07:40:16;;;;;;;12.60;8.60;;;;;;;;;;5078010;28;20040;-47
2021/04/17 07:42:47;;;;;;;10.27;9.05;;;;;;;;;;5095609;28;20066;-48
2021/04/17 07:45:20;;;;;;;10.98;9.07;;;;;;;;;;5095787;28;20051;-47
2021/04/17 07:47:47;;;;;;;12.82;10.02;;;;;;;;;;5095796;28;20048;-47
2021/04/17 07:50:14;;;;;;;11.70;9.20;;;;;;;;;;5083770;28;20073;-47
2021/04/17 07:52:41;;;;;;;11.88;9.48;;;;;;;;;;5067934;28;20035;-47
2021/04/17 07:55:09;;;;;;;11.57;8.50;;;;;;;;;;5095909;28;20465;-51
2021/04/17 07:57:44;;;;;;;11.38;8.98;;;;;;;;;;5095670;28;20040;-47
2021/04/17 08:00:12;;;;;;;11.65;8.82;;;;;;;;;;5095477;28;20044;-48
2021/04/17 08:02:40;;;;;;;12.77;8.73;;;;;;;;;;5085487;28;20040;-45
2021/04/17 08:05:07;;;;;;;12.38;8.95;;;;;;;;;;5095532;28;20048;-47
2021/04/17 08:07:34;;;;;;;11.55;8.80;;;;;;;;;;5089807;28;20048;-47
2021/04/17 08:10:01;;;;;;;11.45;9.90;;;;;;;;;;5095301;28;20044;-48
2021/04/17 08:12:28;;;;;;;13.88;9.20;;;;;;;;;;5084367;28;20037;-47
2021/04/17 08:14:55;;;;;;;12.55;9.13;;;;;;;;;;5086083;28;20043;-47
2021/04/17 08:17:22;;;;;;;11.77;9.18;;;;;;;;;;5075155;28;20048;-47
2021/04/17 08:19:49;;;;;;;11.85;8.48;;;;;;;;;;5075351;28;20071;-48
2021/04/17 08:22:16;;;;;;;10.55;8.25;;;;;;;;;;5080962;28;20048;-49
2021/04/17 08:24:46;;;;;;;12.27;8.73;;;;;;;;;;5095311;28;20044;-47
2021/04/17 08:27:13;;;;;;;10.50;8.70;;;;;;;;;;5083769;28;20048;-47
2021/04/17 08:29:58;;;;;;;10.68;7.88;;;;;;;;;;5113176;27;20152;-47
2021/04/17 08:32:25;;;;;;;12.35;8.85;;;;;;;;;;5067966;28;20048;-47
2021/04/17 08:34:58;;;;;;;10.60;8.00;;;;;;;;;;5072523;28;20040;-47
2021/04/17 08:37:26;;;;;;;12.50;7.95;;;;;;;;;;5083317;28;20052;-48
2021/04/17 08:39:54;;;;;;;12.55;9.35;;;;;;;;;;5092808;28;20067;-51
2021/04/17 08:42:40;;;;;;;9.57;7.47;;;;;;;;;;5092357;28;20044;-47
2021/04/17 08:45:11;;;;;;;10.18;7.47;;;;;;;;;;5082395;28;20037;-47
2021/04/17 08:47:49;;;;;;;9.32;7.15;;;;;;;;;;5072266;28;20431;-45
2021/04/17 08:50:24;;;;;;;8.38;7.40;;;;;;;;;;5072221;28;20053;-48
2021/04/17 08:53:00;;;;;;;9.57;7.55;;;;;;;;;;5072125;28;20052;-48
2021/04/17 08:55:43;;;;;;;10.07;6.78;;;;;;;;;;5072134;28;20371;-47
2021/04/17 08:58:17;;;;;;;7.80;6.70;;;;;;;;;;5072140;28;20053;-46
2021/04/17 09:00:53;;;;;;;8.27;6.88;;;;;;;;;;5072074;28;20041;-46
2021/04/17 09:03:37;;;;;;;8.75;6.88;;;;;;;;;;5071764;28;20047;-47
2021/04/17 09:06:05;;;;;;;8.68;7.10;;;;;;;;;;5071694;28;20048;-49
2021/04/17 09:08:32;;;;;;;8.30;7.20;;;;;;;;;;5071463;28;20048;-47
2021/04/17 09:10:59;;;;;;;7.75;6.78;;;;;;;;;;5071868;28;20048;-46
2021/04/17 09:13:25;;;;;;;8.05;6.22;;;;;;;;;;5071575;28;20045;-49
2021/04/17 09:15:53;;;;;;;7.28;6.32;;;;;;;;;;5071826;28;20045;-48
2021/04/17 09:18:33;;;;;;;9.07;6.80;;;;;;;;;;5071755;28;20045;-46
2021/04/17 09:21:00;;;;;;;6.95;6.05;;;;;;;;;;5071688;28;20044;-47
2021/04/17 09:23:42;;;;;;;7.95;6.43;;;;;;;;;;5070408;28;20040;-47
2021/04/17 09:26:08;;;;;;;7.68;6.45;;;;;;;;;;5071359;28;20048;-45
2021/04/17 09:28:39;;;;;;;6.65;5.90;;;;;;;;;;5061799;28;20060;-46
2021/04/17 09:31:10;;;;;;;6.82;5.88;;;;;;;;;;5051501;28;20041;-47
2021/04/17 09:33:36;;;;;;;7.25;5.50;;;;;;;;;;5065358;28;20037;-48
2021/04/17 09:36:03;;;;;;;6.47;5.68;;;;;;;;;;5066972;28;20367;-47
2021/04/17 09:38:31;;;;;;;6.03;5.38;;;;;;;;;;5051141;28;20037;-48
2021/04/17 09:40:59;;;;;;;6.45;5.50;;;;;;;;;;5039796;28;20041;-47
2021/04/17 09:43:30;;;;;;;6.97;5.63;;;;;;;;;;5041563;28;20076;-46
2021/04/17 09:45:59;;;;;;;7.40;5.88;;;;;;;;;;5037860;28;20049;-48
2021/04/17 09:48:26;;;;;;;8.73;6.05;;;;;;;;;;5037923;28;20057;-48
2021/04/17 09:50:57;;;;;;;7.30;5.57;;;;;;;;;;5037313;28;20041;-49
2021/04/17 09:53:29;;;;;;;6.60;5.88;;;;;;;;;;5037616;28;20368;-47
2021/04/17 09:55:57;;;;;;;7.15;5.70;;;;;;;;;;5037758;28;20348;-46
2021/04/17 09:58:28;;;;;;;7.72;6.22;;;;;;;;;;5037738;28;20049;-48
2021/04/17 10:00:56;;;;;;;6.65;5.65;;;;;;;;;;5037682;28;20510;-48
2021/04/17 10:03:29;;;;;;;7.40;5.85;;;;;;;;;;5049462;28;20048;-46
2021/04/17 10:06:23;;;;;;;7.28;5.80;;;;;;;;;;5054691;28;20049;-47
2021/04/17 10:08:50;;;;;;;6.28;5.15;;;;;;;;;;5037549;28;20048;-47
2021/04/17 10:11:22;;;;;;;6.18;5.00;;;;;;;;;;5037606;28;20045;-47
2021/04/17 10:13:49;;;;;;;7.30;4.97;;;;;;;;;;5045109;28;20048;-48
2021/04/17 10:16:23;;;;;;;8.38;6.15;;;;;;;;;;5037236;28;20053;-47
2021/04/17 10:18:50;;;;;;;7.00;5.55;;;;;;;;;;5037412;28;20057;-47
2021/04/17 10:21:17;;;;;;;6.90;6.03;;;;;;;;;;5037342;28;20046;-48
2021/04/17 10:23:43;;;;;;;6.55;5.65;;;;;;;;;;5033767;28;20044;-45
2021/04/17 10:26:11;;;;;;;5.55;4.88;;;;;;;;;;5057069;28;20468;-46
2021/04/17 10:28:38;;;;;;;5.85;5.03;;;;;;;;;;5057019;28;20085;-47
2021/04/17 10:31:18;;;;;;;6.10;5.40;;;;;;;;;;5057065;28;20044;-47
2021/04/17 10:33:45;;;;;;;6.35;5.20;;;;;;;;;;5056807;28;20068;-47
2021/04/17 10:36:20;;;;;;;6.72;5.38;;;;;;;;;;5045378;28;20046;-47
2021/04/17 10:38:47;;;;;;;6.38;5.25;;;;;;;;;;5037054;28;20057;-45
2021/04/17 10:41:26;;;;;;;6.32;5.20;;;;;;;;;;5037149;28;20452;-47
2021/04/17 10:44:13;;;;;;;7.07;5.82;;;;;;;;;;5051399;28;20045;-47
2021/04/17 10:46:43;;;;;;;5.97;5.30;;;;;;;;;;5056735;28;20036;-47
2021/04/17 10:49:10;;;;;;;5.75;4.93;;;;;;;;;;5041753;28;20049;-46
2021/04/17 10:51:38;;;;;;;6.65;5.45;;;;;;;;;;5035870;28;20037;-46
2021/04/17 10:54:06;;;;;;;7.47;6.03;;;;;;;;;;5035122;28;20384;-47
2021/04/17 10:56:34;;;;;;;7.05;5.63;;;;;;;;;;5038573;28;20044;-46
2021/04/17 10:59:02;;;;;;;5.22;4.40;;;;;;;;;;5036589;28;20060;-48
2021/04/17 11:01:34;;;;;;;6.30;4.97;;;;;;;;;;5036041;28;20033;-48
2021/04/17 11:04:02;;;;;;;6.57;5.47;;;;;;;;;;5044132;28;20075;-47
2021/04/17 11:06:35;;;;;;;7.13;5.03;;;;;;;;;;5035941;28;20060;-47
2021/04/17 11:09:05;;;;;;;6.05;4.43;;;;;;;;;;5036293;28;20057;-47
2021/04/17 11:11:32;;;;;;;8.23;4.60;;;;;;;;;;5036456;28;20038;-48
2021/04/17 11:14:00;;;;;;;5.10;3.90;;;;;;;;;;5050172;28;20033;-46
2021/04/17 11:16:53;;;;;;;4.20;3.70;;;;;;;;;;5042504;28;20042;-46
2021/04/17 11:19:28;;;;;;;4.05;3.60;;;;;;;;;;5052515;28;20048;-46
2021/04/17 11:22:14;;;;;;;6.18;3.78;;;;;;;;;;5042254;28;20054;-47
2021/04/17 11:24:42;;;;;;;4.60;3.58;;;;;;;;;;5035982;28;20440;-47
2021/04/17 11:27:09;;;;;;;5.22;3.72;;;;;;;;;;5036200;28;20037;-47
2021/04/17 11:29:36;;;;;;;4.85;3.70;;;;;;;;;;5045666;28;20068;-47
2021/04/17 11:32:03;;;;;;;4.18;3.78;;;;;;;;;;5055920;28;20048;-47
2021/04/17 11:34:30;;;;;;;4.40;3.60;;;;;;;;;;5055663;28;20041;-46
2021/04/17 11:36:57;;;;;;;4.13;3.33;;;;;;;;;;5048788;28;20048;-48
2021/04/17 11:39:23;;;;;;;3.58;3.13;;;;;;;;;;5036916;28;20045;-46
2021/04/17 11:41:50;;;;;;;3.45;2.78;;;;;;;;;;5035956;28;20049;-46
2021/04/17 11:44:17;;;;;;;4.47;3.53;;;;;;;;;;5035012;28;20045;-47
2021/04/17 11:46:44;;;;;;;4.20;3.03;;;;;;;;;;5035795;28;20048;-47
2021/04/17 11:49:11;;;;;;;3.83;3.42;;;;;;;;;;5046863;28;20048;-48
2021/04/17 11:51:38;;;;;;;4.72;3.10;;;;;;;;;;5035655;28;20356;-47
2021/04/17 11:54:05;;;;;;;3.35;3.05;;;;;;;;;;5035625;28;20037;-47
2021/04/17 11:56:32;;;;;;;3.95;3.55;;;;;;;;;;5035574;28;20044;-46
2021/04/17 11:58:59;;;;;;;3.80;3.33;;;;;;;;;;5040154;28;20497;-46
2021/04/17 12:01:26;;;;;;;3.90;3.50;;;;;;;;;;5055492;28;20045;-47
2021/04/17 12:03:53;;;;;;;5.13;4.07;;;;;;;;;;5055241;28;20041;-47
2021/04/17 12:06:25;;;;;;;5.20;3.88;;;;;;;;;;5035553;28;20041;-47
2021/04/17 12:08:52;;;;;;;5.78;3.95;;;;;;;;;;5038811;28;20049;-48
2021/04/17 12:11:18;;;;;;;4.75;4.13;;;;;;;;;;5055464;28;20052;-45
2021/04/17 12:13:45;;;;;;;5.13;4.55;;;;;;;;;;5055254;28;20440;-47
2021/04/17 12:16:12;;;;;;;4.35;3.90;;;;;;;;;;5055097;28;20040;-49
2021/04/17 12:18:39;;;;;;;5.18;4.07;;;;;;;;;;5047446;28;20045;-46
2021/04/17 12:21:06;;;;;;;5.95;4.90;;;;;;;;;;5040264;28;20045;-47
2021/04/17 12:23:33;;;;;;;3.90;3.22;;;;;;;;;;5035293;28;20045;-47
2021/04/17 12:26:00;;;;;;;5.35;4.45;;;;;;;;;;5035007;28;20045;-46
2021/04/17 12:28:27;;;;;;;5.03;4.35;;;;;;;;;;5030045;28;20072;-46
2021/04/17 12:30:56;;;;;;;5.40;4.72;;;;;;;;;;5060741;28;20478;-47
2021/04/17 12:33:23;;;;;;;6.20;4.97;;;;;;;;;;5055201;28;20041;-48
2021/04/17 12:35:50;;;;;;;5.78;5.18;;;;;;;;;;5054966;28;20041;-47
2021/04/17 12:38:16;;;;;;;6.30;5.10;;;;;;;;;;5053649;28;20707;-48
2021/04/17 12:40:43;;;;;;;7.47;5.30;;;;;;;;;;5073328;28;20048;-48
2021/04/17 12:43:13;;;;;;;6.07;5.07;;;;;;;;;;5075075;28;20040;-46
2021/04/17 12:45:40;;;;;;;5.97;5.13;;;;;;;;;;5061057;28;20048;-48
2021/04/17 12:48:07;;;;;;;5.47;4.82;;;;;;;;;;5054841;28;20041;-46
2021/04/17 12:50:34;;;;;;;6.75;4.93;;;;;;;;;;5060146;28;20056;-48
2021/04/17 12:53:04;;;;;;;6.55;5.20;;;;;;;;;;5054961;28;20041;-47
2021/04/17 12:55:31;;;;;;;7.32;5.38;;;;;;;;;;5054837;28;20064;-46
2021/04/17 12:57:58;;;;;;;6.60;5.50;;;;;;;;;;5054711;28;20041;-48
2021/04/17 13:00:25;;;;;;;6.03;4.97;;;;;;;;;;5069410;28;20048;-47
2021/04/17 13:02:51;;;;;;;6.97;6.00;;;;;;;;;;5060138;28;20051;-47
2021/04/17 13:05:19;;;;;;;8.52;5.65;;;;;;;;;;5054710;28;20045;-46
2021/04/17 13:07:45;;;;;;;6.75;5.88;;;;;;;;;;5054591;28;20052;-48
2021/04/17 13:10:12;;;;;;;8.15;5.93;;;;;;;;;;5067434;28;20044;-47
2021/04/17 13:12:39;;;;;;;8.95;6.80;;;;;;;;;;5074867;28;20036;-46
2021/04/17 13:15:07;;;;;;;7.53;6.00;;;;;;;;;;5056438;28;20041;-46
2021/04/17 13:17:34;;;;;;;7.72;6.45;;;;;;;;;;5058619;28;20048;-47
2021/04/17 13:20:00;;;;;;;7.85;5.95;;;;;;;;;;5069054;28;20041;-46
2021/04/17 13:22:29;;;;;;;8.75;5.88;;;;;;;;;;5078449;28;20051;-46
2021/04/17 13:24:55;;;;;;;6.85;6.15;;;;;;;;;;5078320;28;20044;-47
2021/04/17 13:27:22;;;;;;;8.48;6.80;;;;;;;;;;5066417;28;20051;-47
2021/04/17 13:29:49;;;;;;;7.60;6.45;;;;;;;;;;5058438;28;20344;-47
2021/04/17 13:32:16;;;;;;;7.70;6.28;;;;;;;;;;5058172;28;20478;-48
2021/04/17 13:34:43;;;;;;;8.35;7.13;;;;;;;;;;5057216;28;20045;-49
2021/04/17 13:37:10;;;;;;;7.90;6.15;;;;;;;;;;5037870;28;20443;-46
2021/04/17 13:39:37;;;;;;;8.07;6.30;;;;;;;;;;5044978;28;20044;-46
2021/04/17 13:42:04;;;;;;;9.15;7.60;;;;;;;;;;5046737;28;20448;-46
2021/04/17 13:44:30;;;;;;;24.63;16.70;;;;;;;;;;5037980;28;20052;-46
2021/04/17 13:46:57;;;;;;;12.90;8.73;;;;;;;;;;5038062;28;20045;-46
2021/04/17 13:49:24;;;;;;;10.63;7.97;;;;;;;;;;5042649;28;20048;-48
2021/04/17 13:51:51;;;;;;;10.90;7.80;;;;;;;;;;5057961;28;20045;-47
2021/04/17 13:54:18;;;;;;;8.43;6.82;;;;;;;;;;5048642;28;20041;-47
2021/04/17 13:56:44;;;;;;;10.75;7.70;;;;;;;;;;5037905;28;20049;-46
2021/04/17 13:59:11;;;;;;;8.93;7.03;;;;;;;;;;5040320;28;20053;-48
2021/04/17 14:01:38;;;;;;;8.55;7.20;;;;;;;;;;5057764;28;20056;-47
2021/04/17 14:04:06;;;;;;;8.13;6.85;;;;;;;;;;5057409;28;20037;-47
2021/04/17 14:06:33;;;;;;;8.13;6.90;;;;;;;;;;5053720;28;20053;-47
2021/04/17 14:09:00;;;;;;;9.80;8.23;;;;;;;;;;5037339;28;20049;-48
2021/04/17 14:11:27;;;;;;;10.05;7.78;;;;;;;;;;5050223;28;20045;-48
2021/04/17 14:13:53;;;;;;;10.75;7.78;;;;;;;;;;5037520;28;20045;-48
2021/04/17 14:16:20;;;;;;;9.77;7.20;;;;;;;;;;5037277;28;20049;-46
2021/04/17 14:18:48;;;;;;;9.45;7.57;;;;;;;;;;5037475;28;20057;-47
2021/04/17 14:21:16;;;;;;;9.68;7.63;;;;;;;;;;5045991;28;20356;-47
2021/04/17 14:23:48;;;;;;;10.40;7.55;;;;;;;;;;5037317;28;20048;-47
2021/04/17 14:26:15;;;;;;;9.00;6.88;;;;;;;;;;5037189;28;20037;-48
2021/04/17 14:28:42;;;;;;;10.27;7.47;;;;;;;;;;5037010;28;20061;-46
2021/04/17 14:31:09;;;;;;;10.45;7.60;;;;;;;;;;5039449;28;20045;-47
2021/04/17 14:33:38;;;;;;;10.23;7.93;;;;;;;;;;5020013;28;20052;-49
2021/04/17 14:36:05;;;;;;;9.38;7.88;;;;;;;;;;5036966;28;20095;-46
2021/04/17 14:38:32;;;;;;;11.18;8.43;;;;;;;;;;5037019;28;20368;-48
2021/04/17 14:40:59;;;;;;;10.95;7.63;;;;;;;;;;5044596;28;20329;-46
2021/04/17 14:43:26;;;;;;;12.20;7.80;;;;;;;;;;5037136;28;20072;-48
2021/04/17 14:45:54;;;;;;;11.35;8.48;;;;;;;;;;5036768;28;20052;-47